sensor_id;sensor_type;location;lat;lon;timestamp;pressure;altitude;pressure_sealevel;temperature;humidity
11212;BME280;5663;50.864;12.096;2023-05-21T00:00:55;99475.81;;;15.96;66.25
11212;BME280;5663;50.864;12.096;2023-05-21T00:03:24;99483.78;;;15.94;66.56
11212;BME280;5663;50.864;12.096;2023-05-21T00:05:56;99474.44;;;15.90;66.66
11212;BME280;5663;50.864;12.096;2023-05-21T00:08:27;99476.09;;;15.91;66.81
11212;BME280;5663;50.864;12.096;2023-05-21T00:10:56;99471.19;;;15.87;67.06
11212;BME280;5663;50.864;12.096;2023-05-21T00:13:24;99469.53;;;15.86;67.14
11212;BME280;5663;50.864;12.096;2023-05-21T00:15:54;99461.03;;;15.82;66.96
11212;BME280;5663;50.864;12.096;2023-05-21T00:18:25;99461.16;;;15.81;66.87
11212;BME280;5663;50.864;12.096;2023-05-21T00:20:59;99457.78;;;15.79;66.62
11212;BME280;5663;50.864;12.096;2023-05-21T00:23:31;99460.41;;;15.79;66.23
11212;BME280;5663;50.864;12.096;2023-05-21T00:26:01;99455.38;;;15.75;66.14
11212;BME280;5663;50.864;12.096;2023-05-21T00:28:42;99459.69;;;15.76;66.42
11212;BME280;5663;50.864;12.096;2023-05-21T00:31:16;99460.75;;;15.74;66.82
11212;BME280;5663;50.864;12.096;2023-05-21T00:33:53;99440.59;;;15.62;66.65
11212;BME280;5663;50.864;12.096;2023-05-21T00:36:24;99456.16;;;15.65;67.02
11212;BME280;5663;50.864;12.096;2023-05-21T00:39:00;99453.59;;;15.63;66.56
11212;BME280;5663;50.864;12.096;2023-05-21T00:41:31;99453.84;;;15.60;66.52
11212;BME280;5663;50.864;12.096;2023-05-21T00:44:03;99455.72;;;15.58;66.60
11212;BME280;5663;50.864;12.096;2023-05-21T00:46:36;99450.06;;;15.51;66.48
11212;BME280;5663;50.864;12.096;2023-05-21T00:49:07;99449.00;;;15.54;66.63
11212;BME280;5663;50.864;12.096;2023-05-21T00:51:36;99432.25;;;15.44;66.65
11212;BME280;5663;50.864;12.096;2023-05-21T00:54:09;99452.78;;;15.50;66.91
11212;BME280;5663;50.864;12.096;2023-05-21T00:56:39;99444.22;;;15.48;66.84
11212;BME280;5663;50.864;12.096;2023-05-21T00:59:11;99451.34;;;15.46;66.70
11212;BME280;5663;50.864;12.096;2023-05-21T01:01:42;99452.28;;;15.45;66.93
11212;BME280;5663;50.864;12.096;2023-05-21T01:04:12;99449.88;;;15.42;66.99
11212;BME280;5663;50.864;12.096;2023-05-21T01:06:43;99450.06;;;15.39;67.06
11212;BME280;5663;50.864;12.096;2023-05-21T01:09:23;99445.03;;;15.36;66.92
11212;BME280;5663;50.864;12.096;2023-05-21T01:11:53;99440.75;;;15.35;67.07
11212;BME280;5663;50.864;12.096;2023-05-21T01:14:23;99430.91;;;15.25;66.90
11212;BME280;5663;50.864;12.096;2023-05-21T01:16:54;99438.56;;;15.28;66.78
11212;BME280;5663;50.864;12.096;2023-05-21T01:19:24;99443.91;;;15.27;66.74
11212;BME280;5663;50.864;12.096;2023-05-21T01:22:02;99440.66;;;15.23;67.01
11212;BME280;5663;50.864;12.096;2023-05-21T01:24:38;99438.97;;;15.22;67.16
11212;BME280;5663;50.864;12.096;2023-05-21T01:27:15;99446.13;;;15.20;66.80
11212;BME280;5663;50.864;12.096;2023-05-21T01:29:45;99399.59;;;14.98;66.67
11212;BME280;5663;50.864;12.096;2023-05-21T01:32:23;99438.56;;;15.16;66.97
11212;BME280;5663;50.864;12.096;2023-05-21T01:35:18;99429.97;;;15.14;66.74
11212;BME280;5663;50.864;12.096;2023-05-21T01:37:57;99426.84;;;15.09;66.65
11212;BME280;5663;50.864;12.096;2023-05-21T01:40:35;99408.59;;;14.94;66.61
11212;BME280;5663;50.864;12.096;2023-05-21T01:43:08;99428.72;;;15.07;66.50
11212;BME280;5663;50.864;12.096;2023-05-21T01:45:39;99420.22;;;15.03;66.55
11212;BME280;5663;50.864;12.096;2023-05-21T01:48:11;99402.75;;;14.91;66.51
11212;BME280;5663;50.864;12.096;2023-05-21T01:50:44;99418.75;;;14.99;66.53
11212;BME280;5663;50.864;12.096;2023-05-21T01:53:12;99417.09;;;14.98;66.66
11212;BME280;5663;50.864;12.096;2023-05-21T01:55:53;99417.41;;;14.93;66.95
11212;BME280;5663;50.864;12.096;2023-05-21T01:58:23;99415.19;;;14.87;67.35
11212;BME280;5663;50.864;12.096;2023-05-21T02:01:13;99421.50;;;14.85;67.07
11212;BME280;5663;50.864;12.096;2023-05-21T02:03:43;99413.94;;;14.80;67.37
11212;BME280;5663;50.864;12.096;2023-05-21T02:06:13;99415.72;;;14.79;67.14
11212;BME280;5663;50.864;12.096;2023-05-21T02:08:51;99421.91;;;14.78;67.12
11212;BME280;5663;50.864;12.096;2023-05-21T02:11:25;99415.09;;;14.76;67.34
11212;BME280;5663;50.864;12.096;2023-05-21T02:13:56;99407.53;;;14.71;67.54
11212;BME280;5663;50.864;12.096;2023-05-21T02:16:27;99408.50;;;14.70;67.54
11212;BME280;5663;50.864;12.096;2023-05-21T02:18:57;99411.41;;;14.66;67.60
11212;BME280;5663;50.864;12.096;2023-05-21T02:21:27;99418.44;;;14.65;67.77
11212;BME280;5663;50.864;12.096;2023-05-21T02:23:57;99402.50;;;14.56;67.80
11212;BME280;5663;50.864;12.096;2023-05-21T02:26:29;99384.88;;;14.45;67.29
11212;BME280;5663;50.864;12.096;2023-05-21T02:29:04;99404.47;;;14.52;67.71
11212;BME280;5663;50.864;12.096;2023-05-21T02:31:34;99416.34;;;14.58;67.74
11212;BME280;5663;50.864;12.096;2023-05-21T02:34:03;99414.75;;;14.55;67.75
11212;BME280;5663;50.864;12.096;2023-05-21T02:36:45;99408.03;;;14.51;68.01
11212;BME280;5663;50.864;12.096;2023-05-21T02:39:23;99403.75;;;14.50;68.28
11212;BME280;5663;50.864;12.096;2023-05-21T02:41:54;99415.22;;;14.47;68.50
11212;BME280;5663;50.864;12.096;2023-05-21T02:44:24;99404.13;;;14.44;68.70
11212;BME280;5663;50.864;12.096;2023-05-21T02:46:58;99404.53;;;14.38;68.92
11212;BME280;5663;50.864;12.096;2023-05-21T02:49:32;99384.63;;;14.22;68.88
11212;BME280;5663;50.864;12.096;2023-05-21T02:52:01;99403.06;;;14.34;68.94
11212;BME280;5663;50.864;12.096;2023-05-21T02:54:31;99403.91;;;14.34;68.79
11212;BME280;5663;50.864;12.096;2023-05-21T02:57:08;99403.06;;;14.34;69.33
11212;BME280;5663;50.864;12.096;2023-05-21T02:59:38;99403.16;;;14.32;69.18
11212;BME280;5663;50.864;12.096;2023-05-21T03:02:09;99398.84;;;14.31;68.83
11212;BME280;5663;50.864;12.096;2023-05-21T03:04:41;99404.94;;;14.32;69.10
11212;BME280;5663;50.864;12.096;2023-05-21T03:07:18;99391.94;;;14.17;68.84
11212;BME280;5663;50.864;12.096;2023-05-21T03:09:48;99409.31;;;14.31;68.66
11212;BME280;5663;50.864;12.096;2023-05-21T03:12:25;99411.94;;;14.31;68.66
11212;BME280;5663;50.864;12.096;2023-05-21T03:14:55;99412.88;;;14.30;68.95
11212;BME280;5663;50.864;12.096;2023-05-21T03:17:28;99404.41;;;14.26;68.98
11212;BME280;5663;50.864;12.096;2023-05-21T03:19:59;99405.34;;;14.25;68.94
11212;BME280;5663;50.864;12.096;2023-05-21T03:22:31;99407.00;;;14.26;68.94
11212;BME280;5663;50.864;12.096;2023-05-21T03:25:04;99407.97;;;14.25;69.22
11212;BME280;5663;50.864;12.096;2023-05-21T03:27:36;99407.22;;;14.23;69.01
11212;BME280;5663;50.864;12.096;2023-05-21T03:30:08;99411.72;;;14.21;69.35
11212;BME280;5663;50.864;12.096;2023-05-21T03:32:39;99406.56;;;14.20;69.17
11212;BME280;5663;50.864;12.096;2023-05-21T03:35:10;99416.00;;;14.22;69.32
11212;BME280;5663;50.864;12.096;2023-05-21T03:37:41;99416.00;;;14.22;69.42
11212;BME280;5663;50.864;12.096;2023-05-21T03:40:11;99410.78;;;14.22;69.55
11212;BME280;5663;50.864;12.096;2023-05-21T03:42:43;99410.78;;;14.22;69.34
11212;BME280;5663;50.864;12.096;2023-05-21T03:45:14;99415.16;;;14.22;69.46
11212;BME280;5663;50.864;12.096;2023-05-21T03:47:44;99415.16;;;14.22;69.43
11212;BME280;5663;50.864;12.096;2023-05-21T03:50:16;99385.59;;;14.07;69.18
11212;BME280;5663;50.864;12.096;2023-05-21T03:52:48;99417.66;;;14.23;68.99
11212;BME280;5663;50.864;12.096;2023-05-21T03:55:16;99414.34;;;14.21;69.41
11212;BME280;5663;50.864;12.096;2023-05-21T03:57:51;99412.56;;;14.22;69.74
11212;BME280;5663;50.864;12.096;2023-05-21T04:00:23;99412.56;;;14.22;69.46
11212;BME280;5663;50.864;12.096;2023-05-21T04:02:54;99412.44;;;14.23;69.71
11212;BME280;5663;50.864;12.096;2023-05-21T04:05:25;99413.50;;;14.21;69.96
11212;BME280;5663;50.864;12.096;2023-05-21T04:08:20;99412.25;;;14.26;69.65
11212;BME280;5663;50.864;12.096;2023-05-21T04:10:50;99417.28;;;14.29;69.96
11212;BME280;5663;50.864;12.096;2023-05-21T04:13:25;99418.13;;;14.30;70.29
11212;BME280;5663;50.864;12.096;2023-05-21T04:15:55;99424.94;;;14.33;70.25
11212;BME280;5663;50.864;12.096;2023-05-21T04:18:27;99424.63;;;14.37;70.26
11212;BME280;5663;50.864;12.096;2023-05-21T04:20:57;99432.19;;;14.42;69.91
11212;BME280;5663;50.864;12.096;2023-05-21T04:23:33;99433.66;;;14.46;70.12
11212;BME280;5663;50.864;12.096;2023-05-21T04:26:05;99436.81;;;14.51;70.26
11212;BME280;5663;50.864;12.096;2023-05-21T04:28:36;99441.66;;;14.57;70.21
11212;BME280;5663;50.864;12.096;2023-05-21T04:31:07;99429.94;;;14.63;70.11
11212;BME280;5663;50.864;12.096;2023-05-21T04:33:39;99433.94;;;14.68;69.88
11212;BME280;5663;50.864;12.096;2023-05-21T04:36:14;99432.81;;;14.72;70.11
11212;BME280;5663;50.864;12.096;2023-05-21T04:38:47;99425.78;;;14.73;70.62
11212;BME280;5663;50.864;12.096;2023-05-21T04:41:19;99428.28;;;14.74;70.91
11212;BME280;5663;50.864;12.096;2023-05-21T04:43:54;99435.00;;;14.78;71.08
11212;BME280;5663;50.864;12.096;2023-05-21T04:46:27;99429.34;;;14.85;70.66
11212;BME280;5663;50.864;12.096;2023-05-21T04:49:02;99433.44;;;14.89;70.58
11212;BME280;5663;50.864;12.096;2023-05-21T04:51:34;99430.38;;;14.95;70.37
11212;BME280;5663;50.864;12.096;2023-05-21T04:54:08;99423.28;;;14.97;70.47
11212;BME280;5663;50.864;12.096;2023-05-21T04:56:36;99436.91;;;15.02;70.37
11212;BME280;5663;50.864;12.096;2023-05-21T04:59:05;99410.06;;;14.86;70.33
11212;BME280;5663;50.864;12.096;2023-05-21T05:01:36;99430.31;;;15.09;69.98
11212;BME280;5663;50.864;12.096;2023-05-21T05:04:12;99429.97;;;15.14;70.43
11212;BME280;5663;50.864;12.096;2023-05-21T05:06:40;99429.84;;;15.15;70.41
11212;BME280;5663;50.864;12.096;2023-05-21T05:09:13;99423.47;;;15.19;70.66
11212;BME280;5663;50.864;12.096;2023-05-21T05:11:42;99418.22;;;15.19;71.04
11212;BME280;5663;50.864;12.096;2023-05-21T05:14:16;99428.28;;;15.25;70.81
11212;BME280;5663;50.864;12.096;2023-05-21T05:16:57;99435.84;;;15.30;71.14
11212;BME280;5663;50.864;12.096;2023-05-21T05:20:01;99432.69;;;15.38;70.35
11212;BME280;5663;50.864;12.096;2023-05-21T06:58:41;99398.09;;;22.30;57.43
11212;BME280;5663;50.864;12.096;2023-05-21T07:01:15;99388.31;;;22.12;57.91
11212;BME280;5663;50.864;12.096;2023-05-21T07:03:44;99392.25;;;22.08;58.45
11212;BME280;5663;50.864;12.096;2023-05-21T07:06:13;99390.06;;;22.04;58.38
11212;BME280;5663;50.864;12.096;2023-05-21T07:08:41;99368.84;;;21.86;59.16
11212;BME280;5663;50.864;12.096;2023-05-21T07:11:10;99380.81;;;21.90;58.75
11212;BME280;5663;50.864;12.096;2023-05-21T07:13:44;99388.44;;;21.93;59.19
11212;BME280;5663;50.864;12.096;2023-05-21T07:16:16;99388.75;;;21.90;59.41
11212;BME280;5663;50.864;12.096;2023-05-21T07:18:47;99390.97;;;21.95;59.95
11212;BME280;5663;50.864;12.096;2023-05-21T07:21:18;99353.75;;;21.78;60.03
11212;BME280;5663;50.864;12.096;2023-05-21T07:23:47;99382.56;;;21.99;59.42
11212;BME280;5663;50.864;12.096;2023-05-21T07:26:16;99361.16;;;21.93;59.34
11212;BME280;5663;50.864;12.096;2023-05-21T07:28:46;99380.53;;;22.11;59.19
11212;BME280;5663;50.864;12.096;2023-05-21T07:31:14;99379.09;;;22.17;58.83
11212;BME280;5663;50.864;12.096;2023-05-21T07:33:43;99374.09;;;22.13;58.89
11212;BME280;5663;50.864;12.096;2023-05-21T07:36:12;99347.50;;;22.05;58.46
11212;BME280;5663;50.864;12.096;2023-05-21T07:38:43;99362.91;;;22.20;58.80
11212;BME280;5663;50.864;12.096;2023-05-21T07:41:13;99369.28;;;22.27;57.71
11212;BME280;5663;50.864;12.096;2023-05-21T07:43:44;99370.31;;;22.34;58.56
11212;BME280;5663;50.864;12.096;2023-05-21T07:46:14;99368.41;;;22.44;57.38
11212;BME280;5663;50.864;12.096;2023-05-21T07:48:43;99369.47;;;22.51;58.10
11212;BME280;5663;50.864;12.096;2023-05-21T07:51:12;99372.16;;;22.59;57.62
11212;BME280;5663;50.864;12.096;2023-05-21T07:53:41;99363.28;;;22.69;57.66
11212;BME280;5663;50.864;12.096;2023-05-21T07:56:10;99354.75;;;22.83;57.54
11212;BME280;5663;50.864;12.096;2023-05-21T07:58:38;99361.63;;;22.94;57.23
11212;BME280;5663;50.864;12.096;2023-05-21T08:01:13;99352.56;;;23.04;56.61
11212;BME280;5663;50.864;12.096;2023-05-21T08:03:48;99348.63;;;23.17;57.29
11212;BME280;5663;50.864;12.096;2023-05-21T08:06:20;99346.03;;;23.25;56.95
11212;BME280;5663;50.864;12.096;2023-05-21T08:08:51;99350.03;;;23.37;57.39
11212;BME280;5663;50.864;12.096;2023-05-21T08:11:23;99348.09;;;23.47;57.01
11212;BME280;5663;50.864;12.096;2023-05-21T08:13:58;99344.31;;;23.58;57.21
11212;BME280;5663;50.864;12.096;2023-05-21T08:16:30;99342.69;;;23.73;57.62
11212;BME280;5663;50.864;12.096;2023-05-21T08:18:58;99336.06;;;23.77;55.93
11212;BME280;5663;50.864;12.096;2023-05-21T08:21:26;99351.56;;;23.90;56.20
11212;BME280;5663;50.864;12.096;2023-05-21T08:23:55;99343.41;;;24.00;55.22
11212;BME280;5663;50.864;12.096;2023-05-21T08:26:27;99347.06;;;24.07;55.25
11212;BME280;5663;50.864;12.096;2023-05-21T08:28:57;99345.25;;;24.16;55.74
11212;BME280;5663;50.864;12.096;2023-05-21T08:31:31;99336.28;;;24.25;56.42
11212;BME280;5663;50.864;12.096;2023-05-21T08:33:59;99353.09;;;24.42;55.66
11212;BME280;5663;50.864;12.096;2023-05-21T08:36:31;99347.91;;;24.56;56.70
11212;BME280;5663;50.864;12.096;2023-05-21T08:39:01;99353.19;;;24.73;56.58
11212;BME280;5663;50.864;12.096;2023-05-21T08:41:35;99350.84;;;24.86;55.80
11212;BME280;5663;50.864;12.096;2023-05-21T08:44:10;99345.16;;;24.97;54.23
11212;BME280;5663;50.864;12.096;2023-05-21T08:46:44;99340.66;;;25.06;54.39
11212;BME280;5663;50.864;12.096;2023-05-21T08:49:21;99337.28;;;25.20;56.02
11212;BME280;5663;50.864;12.096;2023-05-21T08:51:57;99338.03;;;25.37;55.43
11212;BME280;5663;50.864;12.096;2023-05-21T08:54:28;99333.63;;;25.52;54.56
11212;BME280;5663;50.864;12.096;2023-05-21T08:57:00;99330.03;;;25.68;54.53
11212;BME280;5663;50.864;12.096;2023-05-21T08:59:31;99336.00;;;25.78;52.60
11212;BME280;5663;50.864;12.096;2023-05-21T09:02:04;99332.63;;;25.76;52.06
11212;BME280;5663;50.864;12.096;2023-05-21T09:04:37;99325.09;;;25.88;52.75
11212;BME280;5663;50.864;12.096;2023-05-21T09:07:15;99317.63;;;26.07;52.77
11212;BME280;5663;50.864;12.096;2023-05-21T09:09:48;99315.25;;;26.12;52.27
11212;BME280;5663;50.864;12.096;2023-05-21T09:12:19;99327.47;;;26.44;51.93
11212;BME280;5663;50.864;12.096;2023-05-21T09:14:48;99324.19;;;26.57;51.42
11212;BME280;5663;50.864;12.096;2023-05-21T09:17:19;99321.19;;;26.60;50.21
11212;BME280;5663;50.864;12.096;2023-05-21T09:20:07;99324.41;;;26.70;49.02
11212;BME280;5663;50.864;12.096;2023-05-21T09:22:43;99294.88;;;26.71;50.23
11212;BME280;5663;50.864;12.096;2023-05-21T09:25:15;99320.81;;;27.07;49.27
11212;BME280;5663;50.864;12.096;2023-05-21T09:27:45;99314.84;;;27.20;50.12
11212;BME280;5663;50.864;12.096;2023-05-21T09:30:17;99317.06;;;27.52;49.69
11212;BME280;5663;50.864;12.096;2023-05-21T09:32:52;99320.56;;;27.89;49.24
11212;BME280;5663;50.864;12.096;2023-05-21T09:35:23;99309.19;;;28.09;47.66
11212;BME280;5663;50.864;12.096;2023-05-21T09:37:52;99321.44;;;28.18;46.72
11212;BME280;5663;50.864;12.096;2023-05-21T09:40:23;99313.13;;;28.34;47.33
11212;BME280;5663;50.864;12.096;2023-05-21T09:42:57;99311.22;;;28.50;47.04
11212;BME280;5663;50.864;12.096;2023-05-21T09:45:27;99309.34;;;28.78;46.43
11212;BME280;5663;50.864;12.096;2023-05-21T09:48:02;99307.69;;;29.18;46.81
11212;BME280;5663;50.864;12.096;2023-05-21T09:50:35;99294.41;;;29.52;41.59
11212;BME280;5663;50.864;12.096;2023-05-21T09:53:11;99288.09;;;29.66;41.14
11212;BME280;5663;50.864;12.096;2023-05-21T09:55:42;99286.25;;;29.86;40.50
11212;BME280;5663;50.864;12.096;2023-05-21T09:58:14;99288.31;;;29.98;40.80
11212;BME280;5663;50.864;12.096;2023-05-21T10:00:46;99292.03;;;30.10;37.95
11212;BME280;5663;50.864;12.096;2023-05-21T10:03:22;99278.84;;;30.08;36.54
11212;BME280;5663;50.864;12.096;2023-05-21T10:05:51;99283.34;;;30.08;37.78
11212;BME280;5663;50.864;12.096;2023-05-21T10:08:25;99286.69;;;30.10;37.96
11212;BME280;5663;50.864;12.096;2023-05-21T10:10:54;99285.88;;;30.23;40.14
11212;BME280;5663;50.864;12.096;2023-05-21T10:13:25;99283.78;;;30.31;38.11
11212;BME280;5663;50.864;12.096;2023-05-21T10:16:00;99288.16;;;30.26;37.97
11212;BME280;5663;50.864;12.096;2023-05-21T10:18:33;99286.28;;;30.26;38.78
11212;BME280;5663;50.864;12.096;2023-05-21T10:21:04;99280.88;;;30.39;39.04
11212;BME280;5663;50.864;12.096;2023-05-21T10:23:37;99283.78;;;30.45;34.94
11212;BME280;5663;50.864;12.096;2023-05-21T10:26:08;99278.63;;;30.50;37.37
11212;BME280;5663;50.864;12.096;2023-05-21T10:28:42;99266.84;;;30.51;36.21
11212;BME280;5663;50.864;12.096;2023-05-21T10:31:11;99277.16;;;30.54;37.75
11212;BME280;5663;50.864;12.096;2023-05-21T10:33:42;99276.97;;;30.49;35.18
11212;BME280;5663;50.864;12.096;2023-05-21T10:36:13;99273.06;;;30.45;36.88
11212;BME280;5663;50.864;12.096;2023-05-21T10:38:47;99272.03;;;30.32;34.88
11212;BME280;5663;50.864;12.096;2023-05-21T10:41:19;99277.81;;;30.29;36.23
11212;BME280;5663;50.864;12.096;2023-05-21T10:44:04;99264.00;;;30.32;35.44
11212;BME280;5663;50.864;12.096;2023-05-21T10:47:10;99268.09;;;30.41;34.63
11212;BME280;5663;50.864;12.096;2023-05-21T10:50:20;99265.59;;;30.40;34.33
11212;BME280;5663;50.864;12.096;2023-05-21T10:53:02;99261.06;;;30.54;34.95
11212;BME280;5663;50.864;12.096;2023-05-21T10:55:46;99265.16;;;30.63;35.33
11212;BME280;5663;50.864;12.096;2023-05-21T10:58:42;99263.81;;;30.99;33.19
11212;BME280;5663;50.864;12.096;2023-05-21T11:01:31;99266.63;;;31.17;33.35
11212;BME280;5663;50.864;12.096;2023-05-21T11:04:03;99262.88;;;31.25;32.61
11212;BME280;5663;50.864;12.096;2023-05-21T11:06:37;99255.75;;;31.44;32.72
11212;BME280;5663;50.864;12.096;2023-05-21T11:09:12;99263.09;;;31.61;31.09
11212;BME280;5663;50.864;12.096;2023-05-21T11:11:43;99256.41;;;31.71;31.02
11212;BME280;5663;50.864;12.096;2023-05-21T11:14:30;99258.03;;;31.72;30.92
11212;BME280;5663;50.864;12.096;2023-05-21T11:17:01;99256.41;;;31.71;30.69
11212;BME280;5663;50.864;12.096;2023-05-21T11:19:38;99257.94;;;31.92;32.45
11212;BME280;5663;50.864;12.096;2023-05-21T11:22:26;99263.31;;;32.17;30.81
11212;BME280;5663;50.864;12.096;2023-05-21T11:24:57;99249.97;;;32.28;30.88
11212;BME280;5663;50.864;12.096;2023-05-21T11:27:32;99243.09;;;32.32;30.81
11212;BME280;5663;50.864;12.096;2023-05-21T11:30:03;99227.44;;;32.23;29.72
11212;BME280;5663;50.864;12.096;2023-05-21T11:32:42;99247.03;;;32.30;28.56
11212;BME280;5663;50.864;12.096;2023-05-21T11:35:35;99239.00;;;32.23;29.31
11212;BME280;5663;50.864;12.096;2023-05-21T11:38:08;99233.19;;;32.26;26.77
11212;BME280;5663;50.864;12.096;2023-05-21T11:40:49;99246.38;;;32.34;28.99
11212;BME280;5663;50.864;12.096;2023-05-21T11:43:22;99249.56;;;32.50;29.76
11212;BME280;5663;50.864;12.096;2023-05-21T11:45:51;99232.94;;;32.53;30.46
11212;BME280;5663;50.864;12.096;2023-05-21T11:48:23;99248.13;;;32.84;30.18
11212;BME280;5663;50.864;12.096;2023-05-21T11:50:52;99251.31;;;33.11;29.74
11212;BME280;5663;50.864;12.096;2023-05-21T11:53:21;99246.22;;;33.21;27.82
11212;BME280;5663;50.864;12.096;2023-05-21T11:55:50;99236.97;;;32.99;27.21
11212;BME280;5663;50.864;12.096;2023-05-21T11:58:30;99233.09;;;32.76;27.21
11212;BME280;5663;50.864;12.096;2023-05-21T12:00:59;99236.38;;;32.78;29.13
11212;BME280;5663;50.864;12.096;2023-05-21T12:03:33;99239.81;;;32.85;28.73
11212;BME280;5663;50.864;12.096;2023-05-21T12:06:04;99242.38;;;32.80;28.76
11212;BME280;5663;50.864;12.096;2023-05-21T12:08:35;99242.22;;;32.75;29.35
11212;BME280;5663;50.864;12.096;2023-05-21T12:11:04;99231.44;;;32.75;28.81
11212;BME280;5663;50.864;12.096;2023-05-21T12:13:33;99232.34;;;32.69;27.17
11212;BME280;5663;50.864;12.096;2023-05-21T12:16:04;99229.97;;;32.61;29.35
11212;BME280;5663;50.864;12.096;2023-05-21T12:18:33;99234.97;;;32.76;28.21
11212;BME280;5663;50.864;12.096;2023-05-21T12:21:04;99242.97;;;32.82;29.75
11212;BME280;5663;50.864;12.096;2023-05-21T12:23:35;99238.63;;;32.81;29.15
11212;BME280;5663;50.864;12.096;2023-05-21T12:26:05;99230.69;;;32.86;28.68
11212;BME280;5663;50.864;12.096;2023-05-21T12:28:36;99228.44;;;32.83;28.74
11212;BME280;5663;50.864;12.096;2023-05-21T12:31:06;99234.44;;;32.85;28.10
11212;BME280;5663;50.864;12.096;2023-05-21T12:33:33;99240.88;;;32.84;30.16
11212;BME280;5663;50.864;12.096;2023-05-21T12:36:05;99228.28;;;32.78;30.01
11212;BME280;5663;50.864;12.096;2023-05-21T12:38:36;99229.63;;;32.87;29.67
11212;BME280;5663;50.864;12.096;2023-05-21T12:41:05;99220.44;;;32.95;29.26
11212;BME280;5663;50.864;12.096;2023-05-21T12:43:33;99224.56;;;32.98;28.63
11212;BME280;5663;50.864;12.096;2023-05-21T12:46:05;99230.94;;;33.15;30.06
11212;BME280;5663;50.864;12.096;2023-05-21T12:48:47;99229.22;;;33.21;30.62
11212;BME280;5663;50.864;12.096;2023-05-21T12:51:18;99219.31;;;33.03;27.93
11212;BME280;5663;50.864;12.096;2023-05-21T12:53:50;99191.06;;;32.87;29.01
11212;BME280;5663;50.864;12.096;2023-05-21T12:56:19;99216.16;;;33.06;30.34
11212;BME280;5663;50.864;12.096;2023-05-21T12:58:49;99218.72;;;33.01;29.99
11212;BME280;5663;50.864;12.096;2023-05-21T13:01:27;99221.09;;;33.09;28.25
11212;BME280;5663;50.864;12.096;2023-05-21T13:03:59;99211.94;;;33.10;27.34
11212;BME280;5663;50.864;12.096;2023-05-21T13:06:41;99218.47;;;33.02;31.36
11212;BME280;5663;50.864;12.096;2023-05-21T13:09:12;99207.50;;;33.04;29.63
11212;BME280;5663;50.864;12.096;2023-05-21T13:11:40;99201.16;;;33.10;29.58
11212;BME280;5663;50.864;12.096;2023-05-21T13:14:16;99210.56;;;33.19;28.45
11212;BME280;5663;50.864;12.096;2023-05-21T13:16:48;99211.75;;;33.23;30.20
11212;BME280;5663;50.864;12.096;2023-05-21T13:19:17;99207.28;;;33.17;28.19
11212;BME280;5663;50.864;12.096;2023-05-21T13:21:45;99198.94;;;33.07;28.51
11212;BME280;5663;50.864;12.096;2023-05-21T13:24:16;99204.41;;;32.82;27.65
11212;BME280;5663;50.864;12.096;2023-05-21T13:26:44;99195.81;;;32.73;28.05
11212;BME280;5663;50.864;12.096;2023-05-21T13:29:16;99191.25;;;32.74;29.82
11212;BME280;5663;50.864;12.096;2023-05-21T13:31:59;99201.97;;;32.80;28.71
11212;BME280;5663;50.864;12.096;2023-05-21T13:34:29;99195.66;;;32.86;30.57
11212;BME280;5663;50.864;12.096;2023-05-21T13:37:09;99176.34;;;32.71;29.23
11212;BME280;5663;50.864;12.096;2023-05-21T13:39:40;99202.78;;;32.81;28.22
11212;BME280;5663;50.864;12.096;2023-05-21T13:42:10;99195.88;;;32.85;29.71
11212;BME280;5663;50.864;12.096;2023-05-21T13:44:39;99202.22;;;32.91;30.58
11212;BME280;5663;50.864;12.096;2023-05-21T13:47:12;99191.03;;;32.94;30.85
11212;BME280;5663;50.864;12.096;2023-05-21T13:49:42;99188.94;;;32.96;30.27
11212;BME280;5663;50.864;12.096;2023-05-21T13:52:11;99203.00;;;32.98;30.86
11212;BME280;5663;50.864;12.096;2023-05-21T13:54:43;99207.19;;;32.94;29.90
11212;BME280;5663;50.864;12.096;2023-05-21T13:57:53;99204.91;;;32.91;30.40
11212;BME280;5663;50.864;12.096;2023-05-21T14:01:12;99173.34;;;32.79;28.99
11212;BME280;5663;50.864;12.096;2023-05-21T14:04:32;99199.25;;;32.99;29.92
11212;BME280;5663;50.864;12.096;2023-05-21T14:07:50;99196.41;;;32.94;28.17
11212;BME280;5663;50.864;12.096;2023-05-21T15:42:38;99156.56;;;31.35;33.07
11212;BME280;5663;50.864;12.096;2023-05-21T15:45:10;99173.47;;;31.43;34.27
11212;BME280;5663;50.864;12.096;2023-05-21T15:47:40;99176.78;;;31.45;33.61
11212;BME280;5663;50.864;12.096;2023-05-21T15:50:12;99175.34;;;31.42;33.47
11212;BME280;5663;50.864;12.096;2023-05-21T15:52:41;99175.22;;;31.30;33.40
11212;BME280;5663;50.864;12.096;2023-05-21T15:55:11;99176.06;;;31.24;33.82
11212;BME280;5663;50.864;12.096;2023-05-21T15:57:47;99170.50;;;31.19;33.01
11212;BME280;5663;50.864;12.096;2023-05-21T16:00:17;99178.16;;;31.15;33.40
11212;BME280;5663;50.864;12.096;2023-05-21T16:02:48;99165.63;;;31.03;31.68
11212;BME280;5663;50.864;12.096;2023-05-21T16:05:21;99177.97;;;30.79;33.84
11212;BME280;5663;50.864;12.096;2023-05-21T16:08:03;99169.59;;;30.49;35.49
11212;BME280;5663;50.864;12.096;2023-05-21T16:10:32;99172.31;;;30.35;36.65
11212;BME280;5663;50.864;12.096;2023-05-21T16:13:04;99152.94;;;30.07;36.74
11212;BME280;5663;50.864;12.096;2023-05-21T16:15:44;99170.91;;;30.00;36.65
11212;BME280;5663;50.864;12.096;2023-05-21T16:18:18;99171.97;;;29.72;37.13
11212;BME280;5663;50.864;12.096;2023-05-21T16:20:47;99177.97;;;29.61;37.95
11212;BME280;5663;50.864;12.096;2023-05-21T16:23:15;99172.16;;;29.51;38.18
11212;BME280;5663;50.864;12.096;2023-05-21T16:25:44;99168.22;;;29.46;38.85
11212;BME280;5663;50.864;12.096;2023-05-21T16:28:21;99162.44;;;29.43;38.73
11212;BME280;5663;50.864;12.096;2023-05-21T16:31:03;99166.16;;;29.35;38.91
11212;BME280;5663;50.864;12.096;2023-05-21T16:33:34;99168.00;;;29.28;39.42
11212;BME280;5663;50.864;12.096;2023-05-21T16:36:03;99169.22;;;29.19;39.17
11212;BME280;5663;50.864;12.096;2023-05-21T16:38:31;99167.56;;;29.11;39.48
11212;BME280;5663;50.864;12.096;2023-05-21T16:41:01;99164.03;;;28.98;39.37